首页
METAR-TAF:

METAR-TAF

机场 :

Wrangell, 阿拉斯加州, 美国

纬度: 56-29N, 经度: 132-22W, 海拔: 13米

当前天气观测

该预报发布于21分钟前的05:56 UTC
风速3节,风向多变
温度 2°C
湿度 93%
气压 1002 hPa
能見度: 16.1公里
少量云层高于800英尺
多云层高于5000英尺

METAR: PAWG 250556Z VRB03KT 10SM FEW008 BKN050 02/01 A2960

时间: 21:17 (06:17 UTC)

预报

该预报发布于44分钟前的05:33 UTC
预报有效从25日的 06点(UTC)到 26日的 06点(UTC)
风速8节,风向东南
能見度: 10公里
少量云层高于1500英尺
多云层高于4500英尺
多云层高于6000英尺
附近有阵雨
从 25日的 0800点(UTC)
风速7节,风向东转东南
能見度: 10公里
多云层高于2500英尺
阴天层高于4000英尺
附近有阵雨
从 25日的 1400点(UTC)
风速7节,风向东南
能見度: 6.4公里
阴天层高于2500英尺
小雨, 轻雾
从 26日的 0200点(UTC)
风速12节,风向东南
能見度: 9.7公里
阴天层高于2500英尺
小雨, 轻雾

TAF: PAWG 250533Z 2506/2606 13008KT P6SM VCSH FEW015 BKN045 BKN060 FM250800 11007KT P6SM VCSH BKN025 OVC040 FM251400 13007KT 4SM -RA BR OVC025 FM260200 13012KT 6SM -RA BR OVC025 WS020/18040KT AMD LTD TO CLD VIS AND WIND 2506/2515

超过4000个机场的气象观测和天气预报(METAR&TAF报告)。

可查询的气象台以黄色和红色小点在地图上表示。

将鼠标移到小点上方,可查看气象台名称。

然后点击查看天气观测和预报。

如需切换地图:点击带黑十字的绿色按钮放大地图;点击带横线的绿色按钮缩小地图;或者点击绿色箭头查看邻近地区的地图。


METAR-TAF: